Time;durP1;ratioP1;P1;durP2;ratioP2;P2;SDS_P1;SDS_P2;PMS_P1;PMS_P2;Temp;Humidity;BMP_temperature;BMP_pressure;BME280_temperature;BME280_humidity;BME280_pressure;Samples;Min_cycle;Max_cycle;Signal;HPM_P1;HPM_P2
2022/08/08 00:00:44;;;;;;;2.00;1.55;;;28.00;41.20;;;;;;20722656;28;20057;-72
2022/08/08 00:11:06;;;;;;;2.28;1.42;;;28.00;41.20;;;;;;20722055;28;20046;-72
2022/08/08 00:21:07;;;;;;;1.80;1.00;;;28.00;41.20;;;;;;20739551;28;20076;-72
2022/08/08 00:31:22;;;;;;;1.63;1.20;;;28.00;41.20;;;;;;20722481;28;20038;-72
2022/08/08 00:41:32;;;;;;;1.90;1.27;;;28.00;41.20;;;;;;20726955;28;20073;-74
2022/08/08 00:51:54;;;;;;;1.42;1.10;;;27.90;41.10;;;;;;20768707;28;20061;-71
2022/08/08 01:02:21;;;;;;;1.90;1.50;;;27.90;41.10;;;;;;20736130;28;20056;-73
2022/08/08 01:12:35;;;;;;;2.13;1.60;;;27.90;41.20;;;;;;21180515;23;20099;-72
2022/08/08 01:23:07;;;;;;;2.03;1.52;;;27.90;41.20;;;;;;20898899;28;20112;-72
2022/08/08 01:33:47;;;;;;;2.45;1.30;;;27.80;41.10;;;;;;20913743;28;20158;-73
2022/08/08 01:43:59;;;;;;;1.75;1.30;;;27.80;41.10;;;;;;20896629;28;20040;-72
2022/08/08 01:54:17;;;;;;;2.05;1.45;;;27.80;41.10;;;;;;20879693;28;20163;-72
2022/08/08 02:04:36;;;;;;;1.52;1.10;;;27.70;41.00;;;;;;20894629;28;20071;-72
2022/08/08 02:14:51;;;;;;;2.03;1.20;;;27.70;41.00;;;;;;20911515;28;20402;-72
2022/08/08 02:25:00;;;;;;;1.43;1.30;;;27.70;41.00;;;;;;20909513;28;20033;-72
2022/08/08 02:35:01;;;;;;;1.48;1.27;;;27.70;41.00;;;;;;20878853;28;20040;-71
2022/08/08 02:45:26;;;;;;;2.33;1.80;;;27.60;40.90;;;;;;20891256;28;20090;-72
2022/08/08 02:55:55;;;;;;;1.43;1.10;;;27.60;40.90;;;;;;20890683;28;20029;-72
2022/08/08 03:06:36;;;;;;;2.22;1.55;;;27.60;40.90;;;;;;20874271;28;20041;-72
2022/08/08 03:17:10;;;;;;;1.75;1.23;;;27.50;40.90;;;;;;20878865;28;20041;-72
2022/08/08 03:27:32;;;;;;;2.40;1.40;;;27.60;40.90;;;;;;20874226;28;20525;-71
2022/08/08 03:37:35;;;;;;;1.65;1.35;;;27.50;40.90;;;;;;20888425;28;20459;-72
2022/08/08 03:47:37;;;;;;;2.38;1.50;;;27.50;40.80;;;;;;20886554;28;20044;-71
2022/08/08 03:57:43;;;;;;;2.10;1.60;;;27.50;40.90;;;;;;20887046;28;20335;-74
2022/08/08 04:07:43;;;;;;;2.47;1.63;;;27.50;40.80;;;;;;20870427;28;20067;-73
2022/08/08 04:17:44;;;;;;;2.15;1.95;;;27.40;40.70;;;;;;20912172;28;20375;-76
2022/08/08 04:27:45;;;;;;;2.28;1.50;;;27.40;40.70;;;;;;20902910;28;20052;-73
2022/08/08 04:37:47;;;;;;;2.22;1.75;;;27.40;40.70;;;;;;20901762;28;20029;-71
2022/08/08 04:47:53;;;;;;;2.13;1.80;;;27.30;40.60;;;;;;20886059;28;20029;-71
2022/08/08 04:57:54;;;;;;;2.38;1.63;;;27.30;40.70;;;;;;20901007;28;20112;-74
2022/08/08 05:07:55;;;;;;;2.20;1.50;;;27.30;40.70;;;;;;20916210;28;20099;-73
2022/08/08 05:17:56;;;;;;;2.00;1.48;;;27.30;40.70;;;;;;20899829;28;20319;-73
2022/08/08 05:27:58;;;;;;;1.67;1.20;;;27.30;40.80;;;;;;20882369;28;20184;-72
2022/08/08 05:38:00;;;;;;;2.25;1.60;;;27.20;40.80;;;;;;20898662;28;20048;-72
2022/08/08 05:48:12;;;;;;;2.42;1.67;;;27.20;41.00;;;;;;20899177;28;20040;-72
2022/08/08 05:58:13;;;;;;;2.83;2.03;;;27.20;41.00;;;;;;20913148;28;20390;-76
2022/08/08 06:08:14;;;;;;;3.22;2.22;;;27.20;41.10;;;;;;20895433;28;20049;-72
2022/08/08 06:18:16;;;;;;;2.47;1.98;;;27.30;41.30;;;;;;20895335;28;20075;-73
2022/08/08 06:28:45;;;;;;;2.33;1.35;;;27.20;41.30;;;;;;20877818;28;20065;-72
2022/08/08 06:38:46;;;;;;;2.60;1.88;;;27.20;41.40;;;;;;20892929;28;20068;-71
2022/08/08 06:48:47;;;;;;;1.90;1.48;;;27.20;41.40;;;;;;20876213;28;20506;-75
2022/08/08 06:58:49;;;;;;;2.55;1.88;;;27.20;41.40;;;;;;20891787;28;20467;-74
2022/08/08 07:08:52;;;;;;;2.17;1.67;;;27.30;41.50;;;;;;20907637;28;20048;-72
2022/08/08 07:19:07;;;;;;;2.42;1.95;;;27.30;41.60;;;;;;20891760;28;20036;-72
2022/08/08 07:29:11;;;;;;;3.22;1.80;;;27.20;41.70;;;;;;20889862;28;20036;-71
2022/08/08 07:39:12;;;;;;;2.08;1.42;;;27.20;41.70;;;;;;20888910;28;20036;-72
2022/08/08 07:49:13;;;;;;;2.13;1.63;;;27.20;41.90;;;;;;20904898;28;20044;-72
2022/08/08 07:59:15;;;;;;;3.08;1.70;;;27.20;41.80;;;;;;20888965;28;20056;-70
2022/08/08 08:09:24;;;;;;;1.60;1.50;;;27.30;41.80;;;;;;20887083;28;20118;-70
2022/08/08 08:19:31;;;;;;;2.20;1.23;;;27.30;41.70;;;;;;20871787;28;20041;-74
2022/08/08 08:29:32;;;;;;;2.10;1.60;;;27.30;41.70;;;;;;20887172;28;20059;-70
2022/08/08 08:39:34;;;;;;;1.65;1.15;;;27.40;41.80;;;;;;20870190;28;20029;-75
2022/08/08 08:49:34;;;;;;;2.25;1.40;;;27.40;41.70;;;;;;20885894;28;20041;-73
2022/08/08 08:59:39;;;;;;;1.65;1.27;;;27.50;41.60;;;;;;20888538;28;20355;-72
2022/08/08 09:09:40;;;;;;;1.70;1.50;;;27.50;41.40;;;;;;20884726;28;20052;-74
2022/08/08 09:19:46;;;;;;;1.42;1.10;;;27.60;41.20;;;;;;20900663;28;20072;-72
2022/08/08 09:29:51;;;;;;;1.27;1.10;;;27.80;41.00;;;;;;20882999;28;20044;-73
2022/08/08 09:40:03;;;;;;;2.10;1.38;;;27.90;40.70;;;;;;20899021;28;20049;-71
2022/08/08 09:50:11;;;;;;;2.22;1.52;;;28.20;40.40;;;;;;20901134;28;20060;-71
2022/08/08 10:00:12;;;;;;;1.42;1.08;;;28.20;40.10;;;;;;20899426;28;20111;-74
2022/08/08 10:10:13;;;;;;;1.35;0.95;;;28.30;40.20;;;;;;20878350;28;20045;-73
2022/08/08 10:20:14;;;;;;;1.73;1.20;;;28.30;40.00;;;;;;20910970;28;20098;-71
2022/08/08 10:30:15;;;;;;;1.45;1.13;;;28.40;39.80;;;;;;20877366;28;20378;-72
2022/08/08 10:40:15;;;;;;;2.00;1.38;;;28.60;39.50;;;;;;20909616;28;20060;-73
2022/08/08 10:50:16;;;;;;;1.17;1.08;;;28.90;39.80;;;;;;20891930;28;20037;-71
2022/08/08 11:00:22;;;;;;;1.67;1.17;;;29.10;38.80;;;;;;20891385;28;20439;-71
2022/08/08 11:10:24;;;;;;;1.80;1.45;;;29.40;38.40;;;;;;20874878;28;20056;-72
2022/08/08 11:20:26;;;;;;;1.73;1.02;;;29.60;38.10;;;;;;20873921;28;20033;-72
2022/08/08 11:30:27;;;;;;;2.85;1.35;;;29.80;37.80;;;;;;20888984;28;20047;-72
2022/08/08 11:40:28;;;;;;;1.67;0.90;;;29.80;37.60;;;;;;20872032;28;20047;-70
2022/08/08 11:50:28;;;;;;;4.15;1.30;;;29.90;37.40;;;;;;20887642;28;20119;-74
2022/08/08 12:00:29;;;;;;;1.38;1.00;;;30.00;37.30;;;;;;20887509;28;20518;-72
2022/08/08 12:10:30;;;;;;;1.60;0.90;;;30.20;37.10;;;;;;20887762;28;20041;-71
2022/08/08 12:20:38;;;;;;;1.92;1.27;;;30.30;36.80;;;;;;20870818;28;20039;-70
2022/08/08 12:30:39;;;;;;;2.13;1.00;;;30.50;36.50;;;;;;20870140;28;20036;-72
2022/08/08 12:40:42;;;;;;;1.88;1.10;;;30.70;36.20;;;;;;20882260;28;20036;-73
2022/08/08 12:50:43;;;;;;;1.13;0.93;;;30.90;36.10;;;;;;20917906;28;20163;-72
2022/08/08 13:00:44;;;;;;;1.42;0.90;;;31.00;35.90;;;;;;20901504;28;20701;-72
2022/08/08 13:10:53;;;;;;;1.27;0.90;;;31.10;35.90;;;;;;20900104;28;20041;-73
2022/08/08 13:20:54;;;;;;;1.38;0.90;;;31.20;36.00;;;;;;20899556;28;20413;-71
2022/08/08 13:30:55;;;;;;;1.45;1.13;;;31.20;36.00;;;;;;20915958;28;20032;-74
2022/08/08 13:40:56;;;;;;;1.10;0.95;;;31.20;36.10;;;;;;20898505;28;20037;-71
2022/08/08 13:50:56;;;;;;;1.75;1.00;;;31.20;36.00;;;;;;20898234;28;20059;-71
2022/08/08 14:00:57;;;;;;;1.98;1.10;;;31.20;35.80;;;;;;20913829;28;20033;-73
2022/08/08 14:10:57;;;;;;;1.23;0.93;;;31.40;35.80;;;;;;20895999;28;20152;-72
2022/08/08 14:21:03;;;;;;;0.75;0.63;;;31.50;35.60;;;;;;20895289;28;20110;-76
2022/08/08 14:31:07;;;;;;;0.95;0.75;;;31.70;35.60;;;;;;20894226;28;20041;-72
2022/08/08 14:41:20;;;;;;;1.30;0.85;;;31.80;35.60;;;;;;20894546;28;20044;-73
2022/08/08 14:51:21;;;;;;;1.13;0.80;;;32.00;35.50;;;;;;20877330;28;20032;-73
2022/08/08 15:01:27;;;;;;;1.60;1.00;;;32.00;35.50;;;;;;20910867;28;20029;-74
2022/08/08 15:11:27;;;;;;;1.50;0.88;;;32.10;35.40;;;;;;20891642;28;20052;-72
2022/08/08 15:21:29;;;;;;;1.55;0.80;;;32.10;35.40;;;;;;20889854;28;20029;-74
2022/08/08 15:31:29;;;;;;;1.60;0.85;;;32.10;35.50;;;;;;20889953;28;20033;-71
2022/08/08 15:41:31;;;;;;;1.13;0.88;;;32.10;35.70;;;;;;20872244;28;20033;-70
2022/08/08 15:51:32;;;;;;;1.40;1.10;;;31.90;35.80;;;;;;20889000;28;20040;-71
2022/08/08 16:01:32;;;;;;;0.60;0.60;;;31.80;36.10;;;;;;20887993;28;20036;-71
2022/08/08 16:11:33;;;;;;;1.40;0.88;;;31.60;36.30;;;;;;20877080;28;20076;-72
2022/08/08 16:21:34;;;;;;;1.10;0.77;;;31.70;36.40;;;;;;20920314;28;20056;-74
2022/08/08 16:31:36;;;;;;;1.38;0.70;;;31.80;36.30;;;;;;20919382;28;20299;-72
2022/08/08 16:41:36;;;;;;;1.73;1.20;;;31.80;36.30;;;;;;20902113;28;20403;-72
2022/08/08 16:51:39;;;;;;;1.70;1.17;;;31.90;36.40;;;;;;20901434;28;20025;-71
2022/08/08 17:01:39;;;;;;;1.23;0.90;;;31.90;36.40;;;;;;20900958;28;20051;-71
2022/08/08 17:11:40;;;;;;;1.13;0.98;;;31.90;36.50;;;;;;20883165;28;20041;-72
2022/08/08 17:21:41;;;;;;;1.00;0.73;;;31.90;36.60;;;;;;20916170;28;20029;-71
2022/08/08 17:31:41;;;;;;;2.33;1.10;;;31.80;36.70;;;;;;20898986;28;20044;-73
2022/08/08 17:41:42;;;;;;;0.95;0.73;;;31.70;36.80;;;;;;20897141;28;20325;-72
2022/08/08 17:51:43;;;;;;;1.13;0.68;;;31.60;36.90;;;;;;20913687;28;20036;-71
2022/08/08 18:02:05;;;;;;;1.35;0.77;;;31.60;37.00;;;;;;20912705;28;20029;-71
2022/08/08 18:12:06;;;;;;;1.38;1.00;;;31.50;37.00;;;;;;20912561;28;20648;-71
2022/08/08 18:22:07;;;;;;;0.73;0.63;;;31.50;37.20;;;;;;20878073;28;20044;-72
2022/08/08 18:32:07;;;;;;;1.48;1.00;;;31.50;37.30;;;;;;20877296;28;20201;-72
2022/08/08 18:42:08;;;;;;;1.40;0.90;;;31.50;37.40;;;;;;20893322;28;20076;-73
2022/08/08 18:52:09;;;;;;;1.08;0.75;;;31.40;37.40;;;;;;20892068;28;20287;-71
2022/08/08 19:02:10;;;;;;;1.98;1.00;;;31.40;37.50;;;;;;20890850;28;20127;-72
2022/08/08 19:12:11;;;;;;;1.07;0.73;;;31.30;37.50;;;;;;20890090;28;20574;-77
2022/08/08 19:22:11;;;;;;;1.08;0.77;;;31.30;37.60;;;;;;20873199;28;20348;-72
2022/08/08 19:32:12;;;;;;;1.17;0.80;;;31.30;37.60;;;;;;20872292;28;20037;-76
2022/08/08 19:42:13;;;;;;;1.25;1.00;;;31.30;37.70;;;;;;20889136;28;20056;-78
2022/08/08 19:52:13;;;;;;;1.20;0.90;;;31.20;37.60;;;;;;20904346;28;20041;-73
2022/08/08 20:02:14;;;;;;;1.35;0.90;;;31.20;37.70;;;;;;20887899;28;20067;-73
2022/08/08 20:12:14;;;;;;;1.65;1.00;;;31.30;37.90;;;;;;20870558;28;20033;-72
2022/08/08 20:22:15;;;;;;;1.13;1.00;;;31.20;37.80;;;;;;20886662;28;20033;-73
2022/08/08 20:32:17;;;;;;;1.65;1.00;;;31.20;37.80;;;;;;20887120;28;20125;-73
2022/08/08 20:42:19;;;;;;;2.13;1.10;;;31.20;37.90;;;;;;20886111;28;20033;-76
2022/08/08 20:52:20;;;;;;;1.23;1.00;;;31.20;38.00;;;;;;20885544;28;20596;-77
2022/08/08 21:02:21;;;;;;;0.80;0.80;;;31.20;38.00;;;;;;20914101;28;20094;-73
2022/08/08 21:12:22;;;;;;;2.13;1.30;;;31.10;38.00;;;;;;20882792;28;20037;-73
2022/08/08 21:22:23;;;;;;;1.40;1.00;;;31.20;38.10;;;;;;20898206;28;20032;-72
2022/08/08 21:32:23;;;;;;;2.58;1.13;;;31.10;38.10;;;;;;20897123;28;20040;-72
2022/08/08 21:42:24;;;;;;;1.58;1.00;;;31.10;38.10;;;;;;20896332;28;20064;-74
2022/08/08 21:52:24;;;;;;;1.38;0.80;;;31.10;38.10;;;;;;20879325;28;20029;-72
2022/08/08 22:02:25;;;;;;;1.13;1.03;;;31.10;38.20;;;;;;20911750;28;20037;-71
2022/08/08 22:12:26;;;;;;;1.20;0.95;;;31.10;38.10;;;;;;20895081;28;20052;-71
2022/08/08 22:22:26;;;;;;;1.47;1.00;;;31.10;38.10;;;;;;20894044;28;20037;-72
2022/08/08 22:32:27;;;;;;;1.65;1.00;;;31.10;38.20;;;;;;20893804;28;20434;-70
2022/08/08 22:42:28;;;;;;;2.00;1.00;;;31.00;38.10;;;;;;20908790;28;20121;-74
2022/08/08 22:52:28;;;;;;;1.55;0.73;;;31.10;38.20;;;;;;20890894;28;20120;-72
2022/08/08 23:02:29;;;;;;;1.40;0.73;;;31.00;38.20;;;;;;20890746;28;20044;-73
2022/08/08 23:12:29;;;;;;;1.67;1.00;;;31.00;38.30;;;;;;20907342;28;20131;-70
2022/08/08 23:22:30;;;;;;;1.23;0.80;;;31.00;38.30;;;;;;20888997;28;20029;-70
2022/08/08 23:32:30;;;;;;;1.27;1.00;;;31.00;38.40;;;;;;20905519;28;20044;-70
2022/08/08 23:42:31;;;;;;;0.80;0.73;;;31.00;38.40;;;;;;20873145;28;20033;-72
2022/08/08 23:52:32;;;;;;;1.70;1.00;;;30.90;38.40;;;;;;20904717;28;20028;-71
